createdAt,value
2018-12-22T00:00:25.215Z,100205.12
2018-12-22T00:02:53.210Z,100204.28
2018-12-22T00:05:20.718Z,100203.77
2018-12-22T00:07:48.266Z,100200.83
2018-12-22T00:10:15.895Z,100198.33
2018-12-22T00:12:43.413Z,100201.59
2018-12-22T00:15:10.934Z,100204.77
2018-12-22T00:17:38.437Z,100208.81
2018-12-22T00:20:06.100Z,100205.58
2018-12-22T00:22:33.604Z,100209.98
2018-12-22T00:25:01.095Z,100211.03
2018-12-22T00:27:28.645Z,100214.52
2018-12-22T00:29:56.192Z,100210.72
2018-12-22T00:32:23.675Z,100217.72
2018-12-22T00:34:52.284Z,100218.03
2018-12-22T00:37:19.851Z,100219.30
2018-12-22T00:39:47.423Z,100217.95
2018-12-22T00:42:14.932Z,100219.30
2018-12-22T00:44:42.407Z,100218.20
2018-12-22T00:47:09.997Z,100223.29
2018-12-22T00:49:37.487Z,100229.76
2018-12-22T00:52:05.006Z,100223.02
2018-12-22T00:54:32.520Z,100227.23
2018-12-22T00:57:00.160Z,100224.00
2018-12-22T00:59:27.656Z,100228.05
2018-12-22T01:01:55.174Z,100226.45
2018-12-22T01:04:22.677Z,100224.53
2018-12-22T01:06:50.163Z,100228.58
2018-12-22T01:09:17.787Z,100227.23
2018-12-22T01:11:45.296Z,100221.88
2018-12-22T01:14:12.792Z,100225.94
2018-12-22T01:16:40.534Z,100224.36
2018-12-22T01:19:08.101Z,100227.89
2018-12-22T01:21:35.589Z,100234.08
2018-12-22T01:24:03.069Z,100236.50
2018-12-22T01:26:30.732Z,100239.42
2018-12-22T01:28:58.209Z,100240.30
2018-12-22T01:31:25.679Z,100244.39
2018-12-22T01:33:53.187Z,100246.78
2018-12-22T01:36:20.709Z,100243.30
2018-12-22T01:38:48.344Z,100243.52
2018-12-22T01:41:15.836Z,100241.08
2018-12-22T01:43:43.331Z,100240.83
2018-12-22T01:46:10.949Z,100239.47
2018-12-22T01:48:38.437Z,100239.73
2018-12-22T01:51:06.083Z,100236.50
2018-12-22T01:53:34.017Z,100246.22
2018-12-22T01:56:01.554Z,100247.03
2018-12-22T01:58:29.307Z,100241.69
2018-12-22T02:00:56.809Z,100249.27
2018-12-22T02:03:24.333Z,100247.09
2018-12-22T02:05:51.842Z,100244.70
2018-12-22T02:08:19.322Z,100236.83
2018-12-22T02:10:46.828Z,100240.09
2018-12-22T02:13:14.718Z,100231.52
2018-12-22T02:15:42.207Z,100239.41
2018-12-22T02:18:09.724Z,100242.15
2018-12-22T02:20:37.345Z,100243.55
2018-12-22T02:23:04.833Z,100238.99
2018-12-22T02:25:32.313Z,100237.42
2018-12-22T02:27:59.905Z,100240.39
2018-12-22T02:30:27.387Z,100238.77
2018-12-22T02:32:55.089Z,100230.42
2018-12-22T02:35:22.568Z,100226.91
2018-12-22T02:37:50.067Z,100232.08
2018-12-22T02:40:17.601Z,100237.95
2018-12-22T02:42:45.093Z,100231.20
2018-12-22T02:45:12.572Z,100224.21
2018-12-22T02:47:40.089Z,100222.02
2018-12-22T02:50:09.041Z,100219.33
2018-12-22T02:52:36.550Z,100226.33
2018-12-22T02:55:04.839Z,100223.63
2018-12-22T02:57:32.464Z,100227.11
2018-12-22T02:59:59.950Z,100219.84
2018-12-22T03:02:27.445Z,100218.97
2018-12-22T03:04:55.027Z,100218.97
2018-12-22T03:07:22.554Z,100214.45
2018-12-22T03:09:50.105Z,100213.88
2018-12-22T03:12:17.660Z,100209.53
2018-12-22T03:14:45.490Z,100204.70
2018-12-22T03:17:13.115Z,100206.05
2018-12-22T03:19:40.824Z,100200.14
2018-12-22T03:22:08.328Z,100202.00
2018-12-22T03:24:35.954Z,100204.39
2018-12-22T03:27:03.452Z,100200.09
2018-12-22T03:29:30.957Z,100200.09
2018-12-22T03:31:58.531Z,100195.26
2018-12-22T03:34:26.021Z,100197.39
2018-12-22T03:36:53.546Z,100194.95
2018-12-22T03:39:21.215Z,100187.95
2018-12-22T03:41:48.710Z,100188.47
2018-12-22T03:44:16.951Z,100181.16
2018-12-22T03:46:44.567Z,100176.55
2018-12-22T03:49:12.051Z,100181.41
2018-12-22T03:51:39.548Z,100170.62
2018-12-22T03:54:07.194Z,100173.06
2018-12-22T03:56:34.681Z,100171.46
2018-12-22T03:59:02.209Z,100164.77
2018-12-22T04:01:29.737Z,100167.72
2018-12-22T04:03:57.241Z,100167.72
2018-12-22T04:06:24.872Z,100158.28
2018-12-22T04:08:52.402Z,100154.80
2018-12-22T04:11:19.888Z,100162.33
2018-12-22T04:13:47.506Z,100148.84
2018-12-22T04:16:15.088Z,100151.80
2018-12-22T04:18:42.643Z,100151.80
2018-12-22T04:21:10.186Z,100157.97
2018-12-22T04:23:37.689Z,100150.19
2018-12-22T04:26:05.221Z,100155.59
2018-12-22T04:28:32.810Z,100152.41
2018-12-22T04:31:00.293Z,100153.77
2018-12-22T04:33:27.826Z,100149.46
2018-12-22T04:35:55.382Z,100159.99
2018-12-22T04:38:22.902Z,100151.91
2018-12-22T04:40:50.401Z,100155.95
2018-12-22T04:43:18.062Z,100155.95
2018-12-22T04:45:45.571Z,100155.11
2018-12-22T04:48:13.069Z,100154.04
2018-12-22T04:50:40.596Z,100153.00
2018-12-22T04:53:08.103Z,100141.68
2018-12-22T04:55:35.591Z,100144.91
2018-12-22T04:58:03.106Z,100146.00
2018-12-22T05:00:30.613Z,100149.82
2018-12-22T05:02:58.131Z,100142.52
2018-12-22T05:05:25.633Z,100140.61
2018-12-22T05:07:53.169Z,100148.70
2018-12-22T05:10:20.667Z,100150.30
2018-12-22T05:12:48.163Z,100146.51
2018-12-22T05:15:15.697Z,100157.05
2018-12-22T05:17:43.204Z,100152.21
2018-12-22T05:20:10.688Z,100159.20
2018-12-22T05:22:38.456Z,100162.44
2018-12-22T05:25:05.988Z,100164.04
2018-12-22T05:27:33.480Z,100168.88
2018-12-22T05:30:01.043Z,100165.39
2018-12-22T05:32:28.590Z,100176.43
2018-12-22T05:34:56.079Z,100170.78
2018-12-22T05:37:23.645Z,100180.78
2018-12-22T05:39:51.136Z,100176.73
2018-12-22T05:42:18.629Z,100182.19
2018-12-22T05:44:46.180Z,100182.19
2018-12-22T05:47:13.667Z,100179.54
2018-12-22T05:49:41.233Z,100180.07
2018-12-22T05:52:08.806Z,100182.55
2018-12-22T05:54:36.359Z,100181.20
2018-12-22T05:57:03.841Z,100188.72
2018-12-22T05:59:31.404Z,100181.98
2018-12-22T06:01:58.894Z,100196.56
2018-12-22T06:04:26.431Z,100200.07
2018-12-22T06:06:54.442Z,100207.30
2018-12-22T06:09:21.925Z,100214.34
2018-12-22T06:11:49.416Z,100220.52
2018-12-22T06:14:17.032Z,100228.13
2018-12-22T06:16:44.564Z,100226.48
2018-12-22T06:19:12.041Z,100234.27
2018-12-22T06:21:39.659Z,100247.53
2018-12-22T06:24:07.135Z,100247.53
2018-12-22T06:26:34.658Z,100255.35
2018-12-22T06:29:02.159Z,100257.23
2018-12-22T06:31:29.637Z,100268.84
2018-12-22T06:33:57.171Z,100269.06
2018-12-22T06:36:24.651Z,100277.16
2018-12-22T06:38:52.154Z,100277.77
2018-12-22T06:41:19.653Z,100278.33
2018-12-22T06:43:47.269Z,100284.77
2018-12-22T06:46:14.799Z,100301.20
2018-12-22T06:48:42.291Z,100300.94
2018-12-22T06:51:09.909Z,100303.64
2018-12-22T06:53:37.394Z,100309.03
2018-12-22T06:56:04.890Z,100314.95
2018-12-22T06:58:32.512Z,100324.95
2018-12-22T07:01:00.010Z,100333.91
2018-12-22T07:03:27.499Z,100333.66
2018-12-22T07:05:55.014Z,100339.83
2018-12-22T07:08:22.490Z,100350.62
2018-12-22T07:10:50.020Z,100354.66
2018-12-22T07:13:17.554Z,100360.09
2018-12-22T07:15:45.049Z,100367.10
2018-12-22T07:18:12.664Z,100370.10
2018-12-22T07:20:40.149Z,100377.62
2018-12-22T07:23:07.661Z,100383.53
2018-12-22T07:25:35.337Z,100384.62
2018-12-22T07:28:02.821Z,100388.93
2018-12-22T07:30:30.320Z,100397.51
2018-12-22T07:32:57.827Z,100399.67
2018-12-22T07:35:25.307Z,100407.25
2018-12-22T07:37:52.825Z,100412.90
2018-12-22T07:40:20.347Z,100417.20
2018-12-22T07:42:47.999Z,100419.08
2018-12-22T07:45:15.508Z,100425.30
2018-12-22T07:47:42.998Z,100427.99
2018-12-22T07:50:10.661Z,100431.48
2018-12-22T07:52:38.176Z,100439.83
2018-12-22T07:55:05.713Z,100452.49
2018-12-22T07:57:33.237Z,100448.44
2018-12-22T08:00:00.727Z,100456.84
2018-12-22T08:02:28.208Z,100461.70
2018-12-22T08:04:55.748Z,100471.67
2018-12-22T08:07:23.225Z,100473.28
2018-12-22T08:09:50.717Z,100479.23
2018-12-22T08:12:18.217Z,100481.41
2018-12-22T08:14:45.762Z,100485.41
2018-12-22T08:17:13.372Z,100488.37
2018-12-22T08:19:41.001Z,100487.55
2018-12-22T08:22:08.662Z,100495.64
2018-12-22T08:24:36.231Z,100498.07
2018-12-22T08:27:03.713Z,100510.44
2018-12-22T08:29:31.348Z,100506.16
2018-12-22T08:31:59.792Z,100510.44
2018-12-22T08:34:27.284Z,100510.66
2018-12-22T08:36:54.859Z,100519.31
2018-12-22T08:39:22.431Z,100517.70
2018-12-22T08:41:49.925Z,100519.05
2018-12-22T08:44:17.470Z,100523.05
2018-12-22T08:46:45.013Z,100531.64
2018-12-22T08:49:12.527Z,100538.90
2018-12-22T08:51:40.119Z,100544.55
2018-12-22T08:54:08.245Z,100551.04
2018-12-22T08:56:35.744Z,100553.70
2018-12-22T08:59:03.347Z,100560.14
2018-12-22T09:01:30.837Z,100560.14
2018-12-22T09:03:58.329Z,100567.94
2018-12-22T09:06:25.945Z,100573.07
2018-12-22T09:08:53.970Z,100578.16
2018-12-22T09:11:21.654Z,100578.65
2018-12-22T09:13:49.165Z,100581.88
2018-12-22T09:16:16.665Z,100580.72
2018-12-22T09:18:44.175Z,100587.19
2018-12-22T09:21:11.804Z,100588.73
2018-12-22T09:23:39.452Z,100593.00
2018-12-22T09:26:08.506Z,100595.66
2018-12-22T09:28:36.225Z,100605.86
2018-12-22T09:31:03.732Z,100599.66
2018-12-22T09:33:31.253Z,100602.85
2018-12-22T09:35:58.788Z,100610.42
2018-12-22T09:38:26.290Z,100618.48
2018-12-22T09:40:53.786Z,100620.88
2018-12-22T09:43:21.306Z,100620.84
2018-12-22T09:45:48.793Z,100616.19
2018-12-22T09:48:16.420Z,100626.69
2018-12-22T09:50:43.900Z,100620.50
2018-12-22T09:53:11.425Z,100625.03
2018-12-22T09:55:38.962Z,100627.73
2018-12-22T09:58:06.454Z,100628.03
2018-12-22T10:00:33.960Z,100630.44
2018-12-22T10:03:01.482Z,100623.16
2018-12-22T10:05:29.119Z,100621.81
2018-12-22T10:07:56.651Z,100624.47
2018-12-22T10:10:24.176Z,100622.56
2018-12-22T10:12:51.689Z,100619.07
2018-12-22T10:15:19.186Z,100626.87
2018-12-22T10:17:46.721Z,100624.17
2018-12-22T10:20:14.209Z,100622.78
2018-12-22T10:22:41.760Z,100627.09
2018-12-22T10:25:09.249Z,100628.18
2018-12-22T10:27:36.754Z,100630.84
2018-12-22T10:30:07.142Z,100636.47
2018-12-22T10:32:34.635Z,100634.03
2018-12-22T10:35:02.136Z,100637.51
2018-12-22T10:37:29.645Z,100642.39
2018-12-22T10:39:57.142Z,100646.44
2018-12-22T10:42:24.686Z,100644.75
2018-12-22T10:44:52.343Z,100654.72
2018-12-22T10:47:19.920Z,100657.42
2018-12-22T10:49:47.405Z,100659.56
2018-12-22T10:52:14.982Z,100656.56
2018-12-22T10:54:42.472Z,100664.36
2018-12-22T10:57:10.001Z,100661.31
2018-12-22T10:59:37.599Z,100666.15
2018-12-22T11:02:05.125Z,100674.13
2018-12-22T11:04:32.620Z,100674.61
2018-12-22T11:07:00.983Z,100672.48
2018-12-22T11:09:28.624Z,100679.38
2018-12-22T11:11:56.111Z,100673.41
2018-12-22T11:14:23.602Z,100675.80
2018-12-22T11:16:51.114Z,100681.12
2018-12-22T11:19:18.604Z,100679.16
2018-12-22T11:21:46.150Z,100692.33
2018-12-22T11:24:13.689Z,100686.31
2018-12-22T11:26:41.219Z,100689.23
2018-12-22T11:29:08.725Z,100691.11
2018-12-22T11:31:36.260Z,100693.50
2018-12-22T11:34:03.872Z,100692.91
2018-12-22T11:36:31.359Z,100695.64
2018-12-22T11:38:59.434Z,100698.87
2018-12-22T11:41:26.969Z,100695.46
2018-12-22T11:43:54.456Z,100705.97
2018-12-22T11:46:21.987Z,100699.26
2018-12-22T11:48:50.536Z,100709.81
2018-12-22T11:51:18.060Z,100703.09
2018-12-22T11:53:45.562Z,100713.86
2018-12-22T11:56:13.147Z,100708.45
2018-12-22T11:58:40.652Z,100705.50
2018-12-22T12:01:08.143Z,100711.72
2018-12-22T12:03:35.658Z,100718.17
2018-12-22T12:06:03.195Z,100726.77
2018-12-22T12:08:30.821Z,100723.02
2018-12-22T12:11:00.415Z,100728.38
2018-12-22T12:13:27.946Z,100734.34
2018-12-22T12:15:55.428Z,100733.34
2018-12-22T12:21:21.585Z,100748.55
2018-12-22T12:23:49.204Z,100745.84
2018-12-22T12:26:16.726Z,100755.57
2018-12-22T12:28:44.220Z,100756.44
2018-12-22T12:31:12.009Z,100755.37
2018-12-22T12:33:39.522Z,100764.28
2018-12-22T12:36:07.119Z,100763.41
2018-12-22T12:38:34.771Z,100769.60
2018-12-22T12:41:02.487Z,100774.48
2018-12-22T12:43:29.978Z,100769.08
2018-12-22T12:45:57.554Z,100767.39
2018-12-22T12:48:25.134Z,100776.62
2018-12-22T12:50:52.900Z,100774.48
2018-12-22T12:53:20.438Z,100781.50
2018-12-22T12:55:47.928Z,100785.21
2018-12-22T12:58:15.414Z,100786.41
2018-12-22T13:00:43.233Z,100786.12
2018-12-22T13:03:10.743Z,100788.48
2018-12-22T13:05:38.283Z,100788.70
2018-12-22T13:08:05.786Z,100800.04
2018-12-22T13:10:33.418Z,100797.08
2018-12-22T13:13:16.195Z,100797.41
2018-12-22T13:15:43.822Z,100805.82
2018-12-22T13:18:11.313Z,100797.72
2018-12-22T13:20:38.805Z,100798.77
2018-12-22T13:23:06.350Z,100811.22
2018-12-22T13:25:33.840Z,100816.63
2018-12-22T13:28:01.446Z,100816.37
2018-12-22T13:30:29.030Z,100815.02
2018-12-22T13:32:56.570Z,100822.59
2018-12-22T13:35:24.092Z,100827.44
2018-12-22T13:37:51.712Z,100829.84
2018-12-22T13:40:19.512Z,100836.67
2018-12-22T13:42:47.001Z,100840.98
2018-12-22T13:45:14.656Z,100839.94
2018-12-22T13:47:42.151Z,100836.77
2018-12-22T13:50:13.889Z,100840.01
2018-12-22T13:52:41.628Z,100838.66
2018-12-22T13:55:09.893Z,100853.29
2018-12-22T13:57:43.219Z,100860.61
2018-12-22T14:00:23.313Z,100854.70
2018-12-22T14:02:50.849Z,100866.64
2018-12-22T14:05:25.361Z,100876.05
2018-12-22T14:07:53.005Z,100873.91
2018-12-22T14:10:21.388Z,100871.48
2018-12-22T14:12:48.886Z,100872.34
2018-12-22T14:15:24.589Z,100885.88
2018-12-22T14:17:57.793Z,100883.97
2018-12-22T14:20:25.303Z,100897.44
2018-12-22T14:22:52.876Z,100903.59
2018-12-22T14:25:20.424Z,100909.30
2018-12-22T14:27:47.984Z,100907.95
2018-12-22T14:30:15.477Z,100920.08
2018-12-22T14:32:43.008Z,100918.23
2018-12-22T14:35:14.175Z,100925.28
2018-12-22T14:37:41.908Z,100931.80
2018-12-22T14:40:11.428Z,100926.42
2018-12-22T14:42:38.926Z,100937.44
2018-12-22T14:45:12.732Z,100937.76
2018-12-22T14:47:40.406Z,100936.97
2018-12-22T14:50:11.606Z,100953.17
2018-12-22T14:52:39.084Z,100954.82
2018-12-22T14:55:12.033Z,100957.52
2018-12-22T14:57:46.203Z,100957.52
2018-12-22T15:00:15.985Z,100961.02
2018-12-22T15:02:43.471Z,100962.92
2018-12-22T15:05:10.963Z,100967.27
2018-12-22T15:07:38.538Z,100979.92
2018-12-22T15:10:08.994Z,100987.76
2018-12-22T15:12:36.595Z,100989.44
2018-12-22T15:15:10.117Z,100996.72
2018-12-22T15:17:40.637Z,100998.66
2018-12-22T15:20:17.768Z,101008.88
2018-12-22T15:22:45.481Z,101007.55
2018-12-22T15:25:12.968Z,101017.56
2018-12-22T15:27:40.502Z,101024.23
2018-12-22T15:30:11.489Z,101030.42
2018-12-22T15:32:44.219Z,101032.39
2018-12-22T15:35:09.046Z,101037.79
2018-12-22T15:37:36.534Z,101039.41
2018-12-22T15:40:07.904Z,101043.19
2018-12-22T15:42:35.418Z,101048.30
2018-12-22T15:45:03.990Z,101056.75
2018-12-22T15:47:31.515Z,101057.27
2018-12-22T15:49:59.257Z,101055.18
2018-12-22T15:52:26.888Z,101057.06
2018-12-22T15:54:54.610Z,101064.05
2018-12-22T15:57:22.137Z,101066.80
2018-12-22T15:59:49.765Z,101078.16
2018-12-22T16:02:18.837Z,101072.78
2018-12-22T16:04:46.520Z,101081.94
2018-12-22T16:07:14.080Z,101091.11
2018-12-22T16:09:41.576Z,101091.69
2018-12-22T16:12:09.059Z,101106.52
2018-12-22T16:14:36.669Z,101106.01
2018-12-22T16:17:04.197Z,101110.59
2018-12-22T16:19:31.685Z,101115.41
2018-12-22T16:21:59.260Z,101125.11
2018-12-22T16:24:26.749Z,101125.73
2018-12-22T16:26:54.261Z,101135.76
2018-12-22T16:29:23.429Z,101146.86
2018-12-22T16:31:50.987Z,101152.27
2018-12-22T16:34:18.469Z,101150.09
2018-12-22T16:36:46.094Z,101156.82
2018-12-22T16:39:13.589Z,101163.59
2018-12-22T16:41:41.108Z,101167.66
2018-12-22T16:44:08.813Z,101171.69
2018-12-22T16:46:36.298Z,101175.45
2018-12-22T16:49:03.814Z,101178.13
2018-12-22T16:51:31.317Z,101180.85
2018-12-22T16:53:58.816Z,101183.58
2018-12-22T16:56:26.334Z,101195.22
2018-12-22T16:58:55.301Z,101188.75
2018-12-22T17:01:26.689Z,101193.88
2018-12-22T17:03:54.180Z,101195.25
2018-12-22T17:06:21.711Z,101200.66
2018-12-22T17:08:49.245Z,101206.03
2018-12-22T17:11:16.751Z,101203.09
2018-12-22T17:13:44.505Z,101209.65
2018-12-22T17:16:12.043Z,101214.75
2018-12-22T17:18:39.563Z,101219.88
2018-12-22T17:21:11.015Z,101223.14
2018-12-22T17:23:57.118Z,101230.70
2018-12-22T17:26:27.606Z,101231.27
2018-12-22T17:28:55.100Z,101237.51
2018-12-22T17:31:22.715Z,101244.00
2018-12-22T17:33:50.208Z,101243.47
2018-12-22T17:36:17.786Z,101256.44
2018-12-22T17:38:45.324Z,101257.51
2018-12-22T17:41:12.805Z,101253.46
2018-12-22T17:43:40.516Z,101259.42
2018-12-22T17:46:08.220Z,101262.36
2018-12-22T17:48:35.795Z,101260.51
2018-12-22T17:51:03.294Z,101267.81
2018-12-22T17:53:30.849Z,101272.67
2018-12-22T17:55:58.413Z,101274.03
2018-12-22T17:58:25.960Z,101278.91
2018-12-22T18:00:53.678Z,101282.69
2018-12-22T18:03:27.433Z,101284.32
2018-12-22T18:05:50.805Z,101283.26
2018-12-22T18:08:18.335Z,101285.14
2018-12-22T18:10:45.831Z,101290.53
2018-12-22T18:13:13.382Z,101291.66
2018-12-22T18:15:40.878Z,101285.43
2018-12-22T18:18:08.387Z,101294.08
2018-12-22T18:20:35.890Z,101300.02
2018-12-22T18:23:03.401Z,101294.87
2018-12-22T18:25:31.026Z,101301.89
2018-12-22T18:27:58.508Z,101302.45
2018-12-22T18:30:25.996Z,101303.53
2018-12-22T18:32:53.641Z,101306.50
2018-12-22T18:35:21.120Z,101313.52
2018-12-22T18:37:48.610Z,101317.02
2018-12-22T18:40:19.117Z,101327.00
2018-12-22T18:42:47.324Z,101325.66
2018-12-22T18:45:14.855Z,101319.19
2018-12-22T18:47:43.653Z,101317.29
2018-12-22T18:50:21.527Z,101319.71
2018-12-22T18:52:49.216Z,101323.52
2018-12-22T18:55:16.708Z,101326.73
2018-12-22T18:57:46.769Z,101329.42
2018-12-22T19:00:19.388Z,101329.18
2018-12-22T19:02:46.924Z,101328.35
2018-12-22T19:05:15.296Z,101339.93
2018-12-22T19:07:42.840Z,101331.84
2018-12-22T19:10:16.940Z,101345.87
2018-12-22T19:12:44.446Z,101350.71
2018-12-22T19:15:11.930Z,101350.98
2018-12-22T19:17:39.555Z,101346.67
2018-12-22T19:20:11.954Z,101344.25
2018-12-22T19:22:39.513Z,101337.78
2018-12-22T19:25:07.970Z,101347.22
2018-12-22T19:27:35.457Z,101349.91
2018-12-22T19:30:03.159Z,101343.97
2018-12-22T19:32:30.642Z,101353.41
2018-12-22T19:34:58.249Z,101353.69
2018-12-22T19:37:25.732Z,101360.14
2018-12-22T19:39:53.252Z,101359.63
2018-12-22T19:42:20.818Z,101370.13
2018-12-22T19:44:48.305Z,101366.89
2018-12-22T19:47:15.798Z,101370.13
2018-12-22T19:49:43.350Z,101364.19
2018-12-22T19:52:10.846Z,101359.35
2018-12-22T19:54:38.345Z,101362.56
2018-12-22T19:57:05.882Z,101360.70
2018-12-22T19:59:33.456Z,101356.65
2018-12-22T20:02:00.979Z,101361.49
2018-12-22T20:04:28.512Z,101360.42
2018-12-22T20:06:56.007Z,101371.73
2018-12-22T20:09:23.497Z,101370.93
2018-12-22T20:11:51.112Z,101369.30
2018-12-22T20:14:18.600Z,101368.78
2018-12-22T20:16:46.086Z,101369.86
2018-12-22T20:19:13.667Z,101374.97
2018-12-22T20:21:41.406Z,101382.27
2018-12-22T20:24:08.930Z,101372.27
2018-12-22T20:26:36.497Z,101382.27
2018-12-22T20:29:03.989Z,101380.64
2018-12-22T20:31:31.481Z,101385.20
2018-12-22T20:33:59.104Z,101385.20
2018-12-22T20:36:26.591Z,101387.62
2018-12-22T20:38:54.385Z,101389.80
2018-12-22T20:41:21.970Z,101388.18
2018-12-22T20:43:49.481Z,101394.13
2018-12-22T20:46:17.012Z,101390.08
2018-12-22T20:48:44.721Z,101388.97
2018-12-22T20:51:12.256Z,101393.84
2018-12-22T20:53:39.854Z,101390.59
2018-12-22T20:56:07.558Z,101394.91
2018-12-22T20:58:35.084Z,101391.66
2018-12-22T21:01:02.579Z,101396.54
2018-12-22T21:03:37.302Z,101399.48
2018-12-22T21:06:04.798Z,101400.83
2018-12-22T21:08:32.342Z,101407.05
2018-12-22T21:10:59.898Z,101405.70
2018-12-22T21:13:27.389Z,101403.24
2018-12-22T21:15:54.920Z,101402.17
2018-12-22T21:18:22.538Z,101409.98
2018-12-22T21:20:50.031Z,101409.98
2018-12-22T21:23:17.572Z,101414.59
2018-12-22T21:25:45.181Z,101408.64
2018-12-22T21:28:12.701Z,101421.84
2018-12-22T21:30:40.193Z,101428.88
2018-12-22T21:33:07.834Z,101421.61
2018-12-22T21:35:35.331Z,101422.69
2018-12-22T21:38:02.830Z,101428.08
2018-12-22T21:40:30.336Z,101424.03
2018-12-22T21:42:57.912Z,101436.72
2018-12-22T21:45:25.972Z,101419.98
2018-12-22T21:47:53.463Z,101419.47
2018-12-22T21:50:21.083Z,101432.67
2018-12-22T21:52:48.568Z,101439.42
2018-12-22T21:55:16.049Z,101441.29
2018-12-22T21:57:43.658Z,101441.02
2018-12-22T22:00:11.179Z,101448.86
2018-12-22T22:02:38.664Z,101446.96
2018-12-22T22:05:06.332Z,101450.17
2018-12-22T22:07:33.821Z,101451.00
2018-12-22T22:10:01.328Z,101453.70
2018-12-22T22:12:28.993Z,101449.93
2018-12-22T22:14:56.482Z,101453.70
2018-12-22T22:17:24.024Z,101460.45
2018-12-22T22:19:51.536Z,101455.84
2018-12-22T22:22:19.037Z,101456.67
2018-12-22T22:24:46.653Z,101462.87
2018-12-22T22:27:14.145Z,101459.09
2018-12-22T22:29:41.664Z,101464.49
2018-12-22T22:32:09.174Z,101466.36
2018-12-22T22:34:36.672Z,101465.84
2018-12-22T22:37:04.244Z,101469.61
2018-12-22T22:39:31.738Z,101469.89
2018-12-22T22:41:59.221Z,101475.01
2018-12-22T22:44:26.793Z,101472.59
2018-12-22T22:46:54.286Z,101469.34
2018-12-22T22:49:21.875Z,101466.91
2018-12-22T22:51:49.490Z,101472.59
2018-12-22T22:54:16.980Z,101476.08
2018-12-22T22:56:44.634Z,101472.59
2018-12-22T22:59:14.783Z,101476.91
2018-12-22T23:01:42.290Z,101484.73
2018-12-22T23:04:09.815Z,101475.02
2018-12-22T23:06:37.428Z,101481.20
2018-12-22T23:09:05.489Z,101484.73
2018-12-22T23:11:32.975Z,101486.62
2018-12-22T23:14:00.509Z,101488.22
2018-12-22T23:16:27.992Z,101488.50
2018-12-22T23:18:55.482Z,101501.47
2018-12-22T23:21:23.105Z,101496.88
2018-12-22T23:23:50.653Z,101500.36
2018-12-22T23:26:18.142Z,101496.31
2018-12-22T23:28:45.764Z,101493.89
2018-12-22T23:31:13.257Z,101490.40
2018-12-22T23:33:40.745Z,101493.38
2018-12-22T23:36:08.294Z,101489.33
2018-12-22T23:38:35.785Z,101494.17
2018-12-22T23:41:03.313Z,101499.29
2018-12-22T23:43:30.840Z,101497.14
2018-12-22T23:45:58.331Z,101510.09
2018-12-22T23:48:25.856Z,101499.56
2018-12-22T23:50:53.366Z,101504.69
2018-12-22T23:53:20.877Z,101501.72
2018-12-22T23:55:48.527Z,101499.84
2018-12-22T23:58:16.050Z,101511.16
